Terminal Aerodrome Forecast
Issued by NWS

Home | Current Version | Previous Version | Text Only | Print | Product List | Glossary On
Versions: 1 2 3 4 5 6 7 8 9 10 11 12 13 14 15
000
FTUS41 KCLE 292300
TAFFDY
TAF
KFDY 292338Z 3000/3024 19018G28KT P6SM VCSH OVC050
     FM300600 26015G25KT 5SM -SHRA OVC025
     FM301200 27015G25KT P6SM SCT035=

USA.gov is the U.S. government's official web portal to all federal, state and local government web resources and services.